Time;durP1;ratioP1;P1;durP2;ratioP2;P2;SDS_P1;SDS_P2;PMS_P1;PMS_P2;Temp;Humidity;BMP_temperature;BMP_pressure;BME280_temperature;BME280_humidity;BME280_pressure;Samples;Min_cycle;Max_cycle;Signal;HPM_P1;HPM_P2
2021/08/07 10:14:01;;;;;;;4.03;3.67;;;21.20;98.30;;;;;;5078758;23;20202;-81
2021/08/07 10:16:05;;;;;;;5.17;3.70;;;21.30;98.30;;;;;;5106192;23;20847;-83
2021/08/07 10:18:12;;;;;;;6.00;4.37;;;21.30;98.30;;;;;;5115218;23;20422;-81
2021/08/07 10:20:30;;;;;;;4.50;3.97;;;21.10;98.30;;;;;;5116007;23;20421;-82
2021/08/07 10:22:34;;;;;;;5.90;4.10;;;21.20;98.30;;;;;;5110403;23;20541;-82
2021/08/07 10:24:43;;;;;;;5.67;3.87;;;21.30;98.30;;;;;;5111774;23;20445;-83
2021/08/07 10:26:50;;;;;;;3.83;3.40;;;21.50;98.30;;;;;;5108863;23;20426;-83
2021/08/07 10:28:57;;;;;;;5.53;4.90;;;21.80;98.30;;;;;;5111283;23;20467;-82
2021/08/07 10:31:04;;;;;;;3.70;3.40;;;21.80;98.30;;;;;;5112165;23;20891;-82
2021/08/07 10:33:08;;;;;;;3.87;3.50;;;22.20;98.30;;;;;;5107660;23;20502;-83
2021/08/07 10:35:13;;;;;;;3.67;3.37;;;22.40;98.30;;;;;;5108631;23;20425;-84
2021/08/07 10:37:17;;;;;;;4.63;3.70;;;22.30;98.30;;;;;;5101007;23;20505;-84
2021/08/07 10:39:20;;;;;;;4.37;3.60;;;22.60;98.30;;;;;;5100948;23;20502;-83
2021/08/07 10:41:28;;;;;;;4.00;3.60;;;23.00;98.30;;;;;;5109295;23;20460;-84
2021/08/07 10:43:35;;;;;;;4.23;3.83;;;23.10;98.30;;;;;;5100309;23;20847;-84
2021/08/07 10:45:41;;;;;;;4.10;3.70;;;23.00;98.30;;;;;;5109221;23;20404;-83
2021/08/07 10:47:47;;;;;;;4.70;4.07;;;23.10;98.30;;;;;;5111213;23;20470;-82
2021/08/07 10:49:50;;;;;;;4.27;3.90;;;22.60;98.30;;;;;;5101103;23;20930;-82
2021/08/07 10:51:53;;;;;;;4.80;4.17;;;22.70;98.30;;;;;;5102453;23;20437;-82
2021/08/07 10:53:58;;;;;;;4.80;4.10;;;22.90;98.30;;;;;;5102134;23;20751;-83
2021/08/07 10:56:01;;;;;;;4.70;3.70;;;23.00;98.30;;;;;;5109885;23;20414;-80
2021/08/07 10:58:04;;;;;;;5.30;3.90;;;23.30;98.30;;;;;;5100855;23;20466;-81
2021/08/07 11:00:29;;;;;;;4.63;4.10;;;23.70;98.30;;;;;;5108542;23;20426;-83
2021/08/07 11:02:32;;;;;;;4.73;3.80;;;24.00;98.30;;;;;;5094322;23;20804;-81
2021/08/07 11:04:53;;;;;;;4.23;3.73;;;24.00;98.30;;;;;;5107392;23;20510;-83
2021/08/07 11:07:08;;;;;;;4.03;3.60;;;24.00;98.30;;;;;;5104415;23;20434;-83
2021/08/07 11:09:18;;;;;;;3.80;3.50;;;24.00;98.30;;;;;;5095479;23;20483;-81
2021/08/07 11:11:28;;;;;;;5.00;3.80;;;24.00;98.30;;;;;;5097968;23;20469;-82
2021/08/07 11:13:31;;;;;;;5.47;4.20;;;24.10;98.30;;;;;;5105122;23;20538;-82
2021/08/07 11:15:35;;;;;;;5.90;3.77;;;23.90;98.30;;;;;;5096709;23;20497;-82
2021/08/07 11:17:52;;;;;;;4.20;3.80;;;24.10;98.30;;;;;;5104582;23;20427;-82
2021/08/07 11:20:00;;;;;;;5.30;3.37;;;24.00;98.30;;;;;;5104303;23;20427;-83
2021/08/07 11:22:03;;;;;;;5.10;3.63;;;23.80;98.30;;;;;;5105388;23;20872;-83
2021/08/07 11:24:06;;;;;;;3.93;3.60;;;24.10;98.30;;;;;;5100218;23;20453;-83
2021/08/07 11:26:09;;;;;;;4.27;3.87;;;24.20;98.30;;;;;;5096358;23;20435;-83
2021/08/07 11:28:10;;;;;;;3.83;3.43;;;24.70;98.30;;;;;;5096625;23;20427;-82
2021/08/07 11:30:17;;;;;;;4.27;3.87;;;25.10;97.10;;;;;;5095998;23;20430;-82
2021/08/07 11:32:22;;;;;;;6.40;4.17;;;25.00;96.00;;;;;;5104715;23;20419;-84
2021/08/07 11:34:26;;;;;;;6.70;4.13;;;24.50;96.60;;;;;;5095136;23;20514;-82
2021/08/07 11:36:29;;;;;;;5.13;4.37;;;23.80;98.20;;;;;;5105543;23;20419;-83
2021/08/07 11:38:32;;;;;;;4.70;4.30;;;23.60;98.30;;;;;;5096900;23;20506;-82
2021/08/07 11:40:38;;;;;;;6.60;4.33;;;23.20;98.30;;;;;;5096469;23;20427;-81
2021/08/07 11:42:44;;;;;;;4.43;4.03;;;22.90;98.30;;;;;;5096177;23;20817;-81
2021/08/07 11:44:49;;;;;;;4.30;3.90;;;23.10;98.30;;;;;;5096582;23;20458;-82
2021/08/07 11:46:59;;;;;;;4.20;3.80;;;23.00;98.30;;;;;;5102776;23;20430;-82
2021/08/07 11:49:03;;;;;;;5.00;4.00;;;23.20;98.30;;;;;;5093331;23;20415;-82
2021/08/07 11:51:08;;;;;;;4.27;3.63;;;24.00;98.30;;;;;;5099521;23;20507;-82
2021/08/07 11:53:15;;;;;;;3.70;3.40;;;24.70;97.80;;;;;;5099603;23;20451;-82
2021/08/07 11:55:19;;;;;;;3.70;3.40;;;25.20;96.70;;;;;;5099677;23;20489;-81
2021/08/07 11:57:23;;;;;;;8.53;3.67;;;25.50;94.80;;;;;;5092260;23;20441;-83
2021/08/07 11:59:28;;;;;;;4.27;3.50;;;25.60;94.20;;;;;;5092957;23;20936;-82
2021/08/07 12:01:34;;;;;;;5.17;3.70;;;25.80;94.50;;;;;;5102275;23;20471;-83
2021/08/07 12:03:42;;;;;;;4.73;4.33;;;26.00;93.30;;;;;;5093754;23;20463;-82
2021/08/07 12:05:54;;;;;;;4.17;3.60;;;25.70;92.60;;;;;;5102442;23;20423;-81
2021/08/07 12:07:58;;;;;;;3.70;3.40;;;25.10;94.80;;;;;;5101984;23;20963;-83
2021/08/07 12:10:05;;;;;;;7.13;6.50;;;24.80;95.10;;;;;;5103280;23;20971;-82
2021/08/07 12:12:08;;;;;;;4.37;3.93;;;24.50;96.80;;;;;;5102281;23;20433;-83
2021/08/07 12:14:13;;;;;;;4.37;3.97;;;24.10;97.90;;;;;;5102211;23;20445;-83
2021/08/07 12:16:18;;;;;;;4.13;3.73;;;23.70;97.50;;;;;;5094390;23;20466;-83
2021/08/07 12:18:22;;;;;;;5.70;4.33;;;23.40;98.20;;;;;;5103070;23;20764;-82
2021/08/07 12:20:25;;;;;;;7.33;4.60;;;23.10;98.30;;;;;;5103682;23;20430;-83
2021/08/07 12:22:29;;;;;;;4.57;3.70;;;23.00;98.30;;;;;;5095858;23;20442;-82
2021/08/07 12:24:32;;;;;;;9.13;4.47;;;22.80;98.30;;;;;;5105542;23;20457;-79
2021/08/07 12:26:41;;;;;;;7.60;4.50;;;22.80;98.30;;;;;;5105962;23;20419;-82
2021/08/07 12:28:45;;;;;;;9.70;4.63;;;22.90;98.30;;;;;;5095301;23;20415;-82
2021/08/07 12:30:53;;;;;;;4.57;4.17;;;22.80;98.30;;;;;;5102883;23;21097;-83
2021/08/07 12:33:17;;;;;;;4.43;4.03;;;22.70;98.30;;;;;;5094372;23;20457;-83
2021/08/07 12:35:30;;;;;;;4.77;4.30;;;22.70;98.30;;;;;;5095162;23;20791;-82
2021/08/07 12:37:36;;;;;;;5.07;4.30;;;22.60;98.30;;;;;;5103564;23;20505;-82
2021/08/07 12:39:40;;;;;;;5.80;4.10;;;22.40;98.30;;;;;;5095524;23;20461;-83
2021/08/07 12:41:43;;;;;;;5.40;4.93;;;22.20;98.30;;;;;;5102350;23;20442;-81
2021/08/07 12:43:47;;;;;;;6.00;5.00;;;21.90;98.30;;;;;;5103337;23;20475;-83
2021/08/07 12:45:59;;;;;;;7.33;4.90;;;21.60;98.30;;;;;;5095398;23;20470;-82
2021/08/07 12:48:02;;;;;;;6.10;5.50;;;21.50;98.30;;;;;;5095851;23;20423;-82
2021/08/07 12:50:12;;;;;;;5.93;5.33;;;21.10;98.30;;;;;;5103687;23;20736;-83
2021/08/07 12:52:18;;;;;;;6.73;6.13;;;20.80;98.30;;;;;;5103026;23;20426;-82
2021/08/07 12:54:22;;;;;;;5.80;5.07;;;20.60;98.30;;;;;;5095799;23;20455;-82
2021/08/07 12:56:26;;;;;;;9.20;8.27;;;20.50;98.30;;;;;;5096084;23;21063;-82
2021/08/07 12:58:29;;;;;;;15.40;12.10;;;20.50;98.30;;;;;;5095744;23;20498;-83
2021/08/07 13:00:32;;;;;;;9.90;8.93;;;20.70;98.30;;;;;;5105288;23;20411;-82
2021/08/07 13:02:36;;;;;;;9.63;7.97;;;20.90;98.30;;;;;;5104981;23;20936;-82
2021/08/07 13:04:45;;;;;;;18.10;8.87;;;21.00;98.30;;;;;;5103887;23;20473;-82
2021/08/07 13:07:01;;;;;;;7.90;7.17;;;20.90;98.30;;;;;;5104547;23;20438;-82
2021/08/07 13:09:33;;;;;;;7.87;7.10;;;20.50;98.30;;;;;;5103760;23;20422;-83
2021/08/07 13:11:36;;;;;;;9.00;7.67;;;20.50;98.30;;;;;;5019587;23;20435;-83
2021/08/07 13:13:41;;;;;;;9.83;8.93;;;20.60;98.30;;;;;;5070727;23;20444;-83
2021/08/07 13:15:48;;;;;;;10.03;8.50;;;20.70;98.30;;;;;;5078733;23;20420;-83
2021/08/07 13:17:54;;;;;;;11.77;9.63;;;20.80;98.30;;;;;;5071646;23;20412;-83
2021/08/07 13:19:58;;;;;;;11.60;7.30;;;20.80;98.30;;;;;;5079447;23;20409;-83
2021/08/07 13:22:13;;;;;;;8.10;7.40;;;20.80;98.30;;;;;;5070740;23;20428;-83
2021/08/07 13:24:28;;;;;;;6.13;5.60;;;20.80;98.30;;;;;;5070502;23;20447;-83
2021/08/07 13:26:32;;;;;;;7.10;5.73;;;20.70;98.30;;;;;;5080118;23;20408;-82
2021/08/07 13:28:37;;;;;;;7.50;6.30;;;20.70;98.30;;;;;;5073395;23;20470;-80
2021/08/07 13:30:47;;;;;;;11.97;10.77;;;20.60;98.30;;;;;;5076749;23;20961;-82
2021/08/07 13:33:01;;;;;;;19.60;15.70;;;20.70;98.30;;;;;;5071066;23;20432;-82
2021/08/07 13:35:07;;;;;;;23.53;19.53;;;20.70;98.30;;;;;;5071645;23;20419;-82
2021/08/07 13:37:10;;;;;;;11.30;10.10;;;20.60;98.30;;;;;;5071501;23;20418;-83
2021/08/07 13:39:13;;;;;;;8.27;6.80;;;20.50;98.30;;;;;;5071006;23;20456;-83
2021/08/07 13:41:16;;;;;;;9.43;8.50;;;20.50;98.30;;;;;;5071070;23;20443;-83
2021/08/07 13:43:20;;;;;;;6.30;5.67;;;20.50;98.30;;;;;;5070929;23;20494;-82
2021/08/07 13:45:24;;;;;;;5.13;4.73;;;20.40;98.30;;;;;;5071084;23;20451;-82
2021/08/07 13:47:27;;;;;;;5.40;4.90;;;19.90;98.30;;;;;;5071180;23;20432;-82
2021/08/07 13:49:30;;;;;;;4.70;4.30;;;19.20;98.30;;;;;;5079349;23;20495;-82
2021/08/07 13:51:34;;;;;;;4.60;3.90;;;18.80;98.30;;;;;;5071894;23;20443;-82
2021/08/07 13:53:37;;;;;;;6.03;3.63;;;19.10;98.30;;;;;;5071123;23;20479;-81
2021/08/07 13:55:40;;;;;;;4.50;4.10;;;18.70;98.30;;;;;;5070902;23;20458;-81
2021/08/07 13:57:44;;;;;;;7.00;5.63;;;18.80;98.30;;;;;;5078647;23;20443;-83
2021/08/07 13:59:48;;;;;;;7.07;6.10;;;18.90;98.30;;;;;;5070680;23;20441;-81
2021/08/07 14:01:51;;;;;;;10.00;8.40;;;19.10;98.30;;;;;;5070995;23;20494;-82
2021/08/07 14:03:55;;;;;;;9.07;8.03;;;19.30;98.30;;;;;;5078918;23;20454;-81
2021/08/07 14:06:02;;;;;;;9.50;8.03;;;19.60;98.30;;;;;;5070724;23;20436;-82
2021/08/07 14:08:06;;;;;;;8.17;7.40;;;19.80;98.30;;;;;;5070906;23;20415;-82
2021/08/07 14:10:10;;;;;;;6.17;5.57;;;20.10;98.30;;;;;;5079737;23;20427;-83
2021/08/07 14:12:14;;;;;;;6.83;4.70;;;20.30;98.30;;;;;;5103393;23;20430;-81
2021/08/07 14:14:17;;;;;;;6.70;5.90;;;20.40;98.30;;;;;;5104077;23;20450;-80
2021/08/07 14:16:22;;;;;;;8.80;7.90;;;20.30;98.30;;;;;;5104592;23;20454;-82
2021/08/07 14:18:25;;;;;;;15.23;13.03;;;20.40;98.30;;;;;;5095804;23;20453;-81
2021/08/07 14:20:28;;;;;;;13.23;11.97;;;20.80;98.30;;;;;;5103194;23;20433;-82
2021/08/07 14:22:32;;;;;;;8.40;6.00;;;22.00;98.30;;;;;;5095129;23;20431;-82
2021/08/07 14:24:35;;;;;;;5.57;5.07;;;23.30;98.30;;;;;;5095761;23;20474;-82
2021/08/07 14:26:38;;;;;;;4.90;4.40;;;24.30;98.30;;;;;;5096718;23;20426;-82
2021/08/07 14:28:44;;;;;;;4.87;3.80;;;25.10;98.30;;;;;;5105301;23;20430;-82
2021/08/07 14:30:53;;;;;;;3.93;3.50;;;25.10;98.30;;;;;;5106006;23;20427;-82
2021/08/07 14:32:58;;;;;;;4.50;4.07;;;24.80;98.30;;;;;;5106793;23;20437;-81
2021/08/07 14:35:04;;;;;;;4.63;3.77;;;24.10;98.30;;;;;;5106096;23;20816;-83
2021/08/07 14:37:09;;;;;;;4.57;4.17;;;23.70;98.30;;;;;;5103645;23;20431;-81
2021/08/07 14:39:21;;;;;;;5.43;4.87;;;23.30;98.30;;;;;;5105344;23;20486;-82
2021/08/07 14:41:26;;;;;;;5.27;4.77;;;22.90;98.30;;;;;;5106246;23;20482;-84
2021/08/07 14:43:29;;;;;;;5.00;4.50;;;22.50;98.30;;;;;;5105354;23;20442;-81
2021/08/07 14:45:33;;;;;;;6.07;5.17;;;22.20;98.30;;;;;;5097571;23;20450;-82
2021/08/07 14:47:37;;;;;;;5.80;5.40;;;21.90;98.30;;;;;;5099107;23;20430;-82
2021/08/07 14:49:41;;;;;;;5.50;5.00;;;21.60;98.30;;;;;;5106023;23;20817;-82
2021/08/07 14:51:45;;;;;;;5.53;5.03;;;21.40;98.30;;;;;;5105164;23;20458;-82
2021/08/07 14:53:48;;;;;;;4.87;4.47;;;21.20;98.30;;;;;;5105489;23;20473;-82
2021/08/07 14:55:52;;;;;;;6.50;5.73;;;21.10;98.30;;;;;;5105471;23;20430;-81
2021/08/07 14:57:56;;;;;;;6.13;5.00;;;21.00;98.30;;;;;;5104954;23;20437;-82
2021/08/07 14:59:59;;;;;;;5.50;4.83;;;21.00;98.30;;;;;;5105866;23;20431;-82
2021/08/07 15:02:02;;;;;;;5.80;5.10;;;20.90;98.30;;;;;;5106265;23;20442;-82
2021/08/07 15:04:05;;;;;;;6.00;4.63;;;20.90;98.30;;;;;;5097785;23;20454;-81
2021/08/07 15:06:10;;;;;;;5.20;4.80;;;20.80;98.30;;;;;;5106447;23;20959;-82
2021/08/07 15:08:13;;;;;;;5.40;4.90;;;20.50;98.30;;;;;;5097908;23;20439;-81
2021/08/07 15:10:16;;;;;;;6.80;4.60;;;20.40;98.30;;;;;;5106056;23;20431;-81
2021/08/07 15:12:19;;;;;;;6.13;5.13;;;20.30;98.30;;;;;;5074079;23;20435;-82
2021/08/07 15:14:22;;;;;;;7.00;4.70;;;20.50;98.30;;;;;;5080663;23;20443;-81
2021/08/07 15:16:26;;;;;;;5.40;4.90;;;20.40;98.30;;;;;;5080433;23;20502;-82
2021/08/07 15:18:36;;;;;;;5.90;5.20;;;20.50;98.30;;;;;;5072785;23;20476;-82
2021/08/07 15:20:39;;;;;;;5.93;5.13;;;20.60;98.30;;;;;;5080058;23;20423;-81
2021/08/07 15:22:44;;;;;;;6.00;5.23;;;20.60;98.30;;;;;;5072918;23;20427;-85
2021/08/07 15:24:49;;;;;;;6.87;5.07;;;20.20;98.30;;;;;;5081391;23;20498;-81
2021/08/07 15:26:55;;;;;;;5.53;5.03;;;19.90;98.30;;;;;;5081004;23;20419;-81
2021/08/07 15:29:02;;;;;;;5.77;5.27;;;19.80;98.30;;;;;;5073859;23;20416;-81
2021/08/07 15:31:07;;;;;;;5.77;5.17;;;19.70;98.30;;;;;;5082973;23;20435;-82
2021/08/07 15:33:10;;;;;;;7.47;5.70;;;19.70;98.30;;;;;;5082459;23;20428;-82
2021/08/07 15:35:17;;;;;;;6.40;4.90;;;19.50;98.30;;;;;;5074940;23;20416;-82
2021/08/07 15:37:21;;;;;;;5.90;5.30;;;19.40;98.30;;;;;;5076259;23;20428;-82
2021/08/07 15:39:25;;;;;;;5.30;4.70;;;19.50;98.30;;;;;;5073757;23;20439;-82
2021/08/07 15:41:28;;;;;;;5.40;4.70;;;19.50;98.30;;;;;;5072681;23;20428;-81
2021/08/07 15:43:31;;;;;;;5.33;4.83;;;19.50;98.30;;;;;;5072178;23;20491;-83
2021/08/07 15:45:35;;;;;;;5.50;5.00;;;19.50;98.30;;;;;;5082216;23;20975;-81
2021/08/07 15:47:39;;;;;;;6.57;4.93;;;19.60;98.30;;;;;;5074326;23;20456;-82
2021/08/07 15:49:43;;;;;;;7.20;5.70;;;19.50;98.30;;;;;;5071738;23;20462;-82
2021/08/07 15:51:46;;;;;;;6.67;5.20;;;19.60;98.30;;;;;;5069857;23;20769;-83
2021/08/07 15:53:52;;;;;;;6.00;5.40;;;19.70;98.30;;;;;;5076932;23;20454;-82
2021/08/07 15:55:59;;;;;;;6.20;5.27;;;19.80;98.30;;;;;;5078740;23;20905;-83
2021/08/07 15:58:02;;;;;;;6.67;5.50;;;19.90;98.30;;;;;;5078518;23;20826;-82
2021/08/07 16:00:12;;;;;;;6.27;5.57;;;19.90;98.30;;;;;;5068910;23;20464;-83
2021/08/07 16:02:17;;;;;;;5.93;5.33;;;20.00;98.30;;;;;;5078104;23;20450;-83
2021/08/07 16:04:20;;;;;;;5.17;4.77;;;19.90;98.30;;;;;;5077075;23;20812;-83
2021/08/07 16:06:24;;;;;;;5.50;5.00;;;19.90;98.30;;;;;;5078534;23;20475;-84
2021/08/07 16:08:29;;;;;;;5.03;4.63;;;19.90;98.30;;;;;;5076904;23;20431;-84
2021/08/07 16:10:35;;;;;;;5.70;4.87;;;19.90;98.30;;;;;;5069947;23;20416;-83
2021/08/07 16:12:40;;;;;;;5.37;4.73;;;20.00;98.30;;;;;;5100471;23;20806;-85
2021/08/07 16:14:45;;;;;;;6.03;4.90;;;20.10;98.30;;;;;;5100329;23;20453;-83
2021/08/07 16:16:48;;;;;;;4.60;4.20;;;20.20;98.30;;;;;;5092866;23;20485;-84
2021/08/07 16:18:51;;;;;;;5.73;4.53;;;20.20;98.30;;;;;;5101220;23;20427;-82
2021/08/07 16:20:55;;;;;;;4.80;4.40;;;20.10;98.30;;;;;;5100776;23;20450;-82
2021/08/07 16:23:01;;;;;;;5.07;4.57;;;19.90;98.30;;;;;;5100822;23;20470;-82
